Time;durP1;ratioP1;P1;durP2;ratioP2;P2;SDS_P1;SDS_P2;PMS_P1;PMS_P2;Temp;Humidity;BMP_temperature;BMP_pressure;BME280_temperature;BME280_humidity;BME280_pressure;Samples;Min_cycle;Max_cycle;Signal;HPM_P1;HPM_P2
2022/09/14 00:00:41;;;;;;;16.33;12.23;;;;;;;15.62;100.00;99671.33;5247533;56;1141106;-75
2022/09/14 00:05:48;;;;;;;17.23;11.73;;;;;;;15.61;100.00;99655.00;5247417;56;1141354;-75
2022/09/14 00:10:54;;;;;;;19.30;13.50;;;;;;;15.62;100.00;99653.17;5247540;56;1141164;-75
2022/09/14 00:16:08;;;;;;;16.57;12.83;;;;;;;15.57;100.00;99657.70;5247503;56;1141153;-75
2022/09/14 00:21:14;;;;;;;16.63;13.33;;;;;;;15.56;100.00;99661.38;5243111;56;1141419;-75
2022/09/14 00:26:23;;;;;;;18.87;15.37;;;;;;;15.53;100.00;99660.84;5197930;56;1141309;-75
2022/09/14 00:31:29;;;;;;;19.40;13.63;;;;;;;15.53;100.00;99669.67;5198791;56;1141246;-75
2022/09/14 00:36:42;;;;;;;17.90;14.27;;;;;;;15.55;100.00;99674.83;5216668;56;1141174;-75
2022/09/14 00:41:49;;;;;;;;;;;;;;;15.54;100.00;99666.50;5156445;57;1139271;-75
2022/09/14 00:46:59;;;;;;;18.87;14.53;;;;;;;15.49;100.00;99665.18;5164639;56;972255;-75
2022/09/14 00:52:28;;;;;;;19.00;14.67;;;;;;;15.41;100.00;99671.05;5243975;56;1141110;-74
2022/09/14 00:57:38;;;;;;;20.80;15.27;;;;;;;15.36;100.00;99662.72;5235746;56;1143402;-75
2022/09/14 01:02:44;;;;;;;16.57;11.83;;;;;;;15.31;100.00;99667.22;5235722;56;1143432;-75
2022/09/14 01:08:14;;;;;;;20.00;14.33;;;;;;;15.28;100.00;99661.39;5235674;56;1143319;-75
2022/09/14 01:13:56;;;;;;;20.10;14.47;;;;;;;15.22;100.00;99660.26;5235718;56;1143308;-75
2022/09/14 01:19:06;;;;;;;19.40;14.83;;;;;;;15.18;100.00;99666.09;5235490;56;1143208;-75
2022/09/14 01:24:45;;;;;;;25.40;15.80;;;;;;;15.16;100.00;99663.59;5233703;56;1143374;-75
2022/09/14 01:30:06;;;;;;;20.60;14.47;;;;;;;15.14;100.00;99664.25;5235481;56;1143224;-75
2022/09/14 01:35:19;;;;;;;26.90;15.90;;;;;;;15.07;100.00;99660.62;5228934;56;1143170;-74
2022/09/14 01:40:44;;;;;;;19.83;12.90;;;;;;;14.97;100.00;99664.77;5152323;57;1143157;-75
2022/09/14 01:45:57;;;;;;;18.43;13.57;;;;;;;14.92;100.00;99660.97;5126137;57;1141236;-75
2022/09/14 01:51:08;;;;;;;18.57;13.23;;;;;;;14.84;100.00;99660.45;5238505;56;1141144;-75
2022/09/14 01:56:19;;;;;;;25.30;15.97;;;;;;;14.83;100.00;99655.30;5247344;56;1141125;-75
2022/09/14 02:01:29;;;;;;;26.23;15.27;;;;;;;14.80;100.00;99649.00;5247358;56;1141203;-75
2022/09/14 02:06:46;;;;;;;21.53;15.90;;;;;;;14.77;100.00;99643.51;5247373;56;1141164;-75
2022/09/14 02:11:54;;;;;;;18.80;14.47;;;;;;;14.71;100.00;99638.84;5247230;56;1141157;-74
2022/09/14 02:17:00;;;;;;;18.53;13.10;;;;;;;14.71;100.00;99650.81;5247340;56;1141274;-74
2022/09/14 02:22:05;;;;;;;18.97;13.00;;;;;;;14.66;100.00;99648.67;5247227;56;1141093;-75
2022/09/14 02:27:11;;;;;;;15.43;12.77;;;;;;;14.63;100.00;99649.50;5247195;56;1139059;-74
2022/09/14 02:32:44;;;;;;;18.03;12.90;;;;;;;14.54;100.00;99645.98;5247216;56;1139048;-74
2022/09/14 02:38:12;;;;;;;23.10;14.60;;;;;;;14.49;100.00;99639.02;5194904;56;1143224;-75
2022/09/14 02:43:40;;;;;;;19.83;13.97;;;;;;;14.43;100.00;99630.36;5032159;58;1143223;-75
2022/09/14 02:48:52;;;;;;;18.03;12.97;;;;;;;14.37;100.00;99628.31;5145555;56;1143196;-75
2022/09/14 02:54:14;;;;;;;15.37;11.13;;;;;;;14.32;100.00;99616.86;5125751;57;1143176;-75
2022/09/14 02:59:20;;;;;;;16.03;12.50;;;;;;;14.31;100.00;99611.70;5236074;56;1143182;-75
2022/09/14 03:04:27;;;;;;;15.10;11.27;;;;;;;14.26;100.00;99608.20;5236139;56;1143445;-75
2022/09/14 03:09:32;;;;;;;18.93;9.90;;;;;;;14.24;100.00;99611.52;5236079;56;1143363;-75
2022/09/14 03:14:39;;;;;;;14.30;11.53;;;;;;;14.19;100.00;99606.38;5236257;56;1141096;-75
2022/09/14 03:19:46;;;;;;;19.27;10.67;;;;;;;14.12;100.00;99614.16;5225457;56;1143178;-74
2022/09/14 03:24:51;;;;;;;11.90;9.50;;;;;;;14.07;100.00;99614.64;5224431;56;1143215;-75
2022/09/14 03:29:58;;;;;;;15.13;10.40;;;;;;;14.00;100.00;99616.31;5224830;56;1141073;-75
2022/09/14 03:35:03;;;;;;;16.20;10.10;;;;;;;13.95;100.00;99616.45;5220570;56;1143178;-75
2022/09/14 03:40:12;;;;;;;13.47;10.87;;;;;;;13.87;100.00;99618.61;5149369;57;1143324;-74
2022/09/14 03:45:20;;;;;;;11.27;8.50;;;;;;;13.82;100.00;99614.75;5118059;57;1143114;-74
2022/09/14 03:50:26;;;;;;;12.13;7.77;;;;;;;13.76;100.00;99611.41;5086602;57;1141349;-75
2022/09/14 03:55:33;;;;;;;12.33;7.97;;;;;;;13.65;100.00;99604.56;5161973;57;1141135;-75
2022/09/14 04:00:40;;;;;;;15.03;7.43;;;;;;;13.62;100.00;99609.70;5114966;57;1141243;-74
2022/09/14 04:05:55;;;;;;;10.53;6.53;;;;;;;13.54;100.00;99613.67;5161957;57;1141147;-75
2022/09/14 04:11:08;;;;;;;9.30;6.67;;;;;;;13.50;100.00;99616.80;5086796;57;1139268;-76
2022/09/14 04:16:14;;;;;;;13.67;8.40;;;;;;;13.45;100.00;99616.44;5123287;57;1137230;-75
2022/09/14 04:21:24;;;;;;;8.57;6.17;;;;;;;13.36;100.00;99623.55;5155516;57;1139143;-75
2022/09/14 04:26:32;;;;;;;7.20;5.77;;;;;;;13.32;100.00;99625.67;5129985;57;1137032;-74
2022/09/14 04:31:38;;;;;;;9.60;6.50;;;;;;;13.28;100.00;99622.19;5084995;57;1137532;-75
2022/09/14 04:36:43;;;;;;;9.43;5.53;;;;;;;13.24;100.00;99622.16;5089313;57;1137078;-75
2022/09/14 04:41:50;;;;;;;9.60;5.80;;;;;;;13.24;100.00;99627.47;5073757;57;1137085;-75
2022/09/14 04:46:56;;;;;;;7.20;5.33;;;;;;;13.20;100.00;99631.42;5154263;56;1137042;-75
2022/09/14 04:52:02;;;;;;;7.27;4.93;;;;;;;13.19;100.00;99622.63;5188759;56;1136974;-75
2022/09/14 04:57:08;;;;;;;11.30;5.60;;;;;;;13.20;100.00;99628.27;5239734;56;1136458;-75
2022/09/14 05:02:13;;;;;;;6.67;3.93;;;;;;;13.20;100.00;99634.91;5230849;56;1139096;-75
2022/09/14 05:07:19;;;;;;;6.13;4.53;;;;;;;13.18;100.00;99634.72;5218861;56;1136962;-75
2022/09/14 05:12:25;;;;;;;6.67;3.73;;;;;;;13.20;100.00;99634.91;5217211;56;1136866;-75
2022/09/14 05:17:34;;;;;;;4.57;3.47;;;;;;;13.19;100.00;99635.06;5218772;56;1137220;-75
2022/09/14 05:22:40;;;;;;;5.87;3.60;;;;;;;13.20;100.00;99638.06;5218166;56;1136926;-75
2022/09/14 05:27:46;;;;;;;6.67;3.93;;;;;;;13.19;100.00;99643.03;5218851;56;1134890;-75
2022/09/14 05:32:52;;;;;;;6.90;3.47;;;;;;;13.20;100.00;99641.55;5223837;56;1134792;-75
2022/09/14 05:37:59;;;;;;;7.62;3.08;;;;;;;13.24;100.00;99642.91;5197792;56;1139050;-76
2022/09/14 05:43:05;;;;;;;6.73;3.03;;;;;;;13.29;100.00;99641.92;5072895;57;1139250;-75
2022/09/14 05:48:11;;;;;;;7.37;3.30;;;;;;;13.35;100.00;99639.97;5139658;56;1139091;-74
2022/09/14 05:53:17;;;;;;;5.17;3.00;;;;;;;13.43;100.00;99639.20;5201603;56;1139234;-74
2022/09/14 05:58:23;;;;;;;7.23;3.20;;;;;;;13.51;100.00;99629.92;5235596;56;1139342;-75
2022/09/14 06:03:29;;;;;;;4.93;2.90;;;;;;;13.63;100.00;99634.45;5235570;56;1139104;-75
2022/09/14 06:08:35;;;;;;;7.77;2.47;;;;;;;13.70;100.00;99632.33;5235590;56;1138966;-75
2022/09/14 06:18:42;;;;;;;6.43;2.00;;;;;;;13.81;100.00;99625.05;5383715;55;47341;-73
2022/09/14 06:23:50;;;;;;;13.10;2.53;;;;;;;13.77;100.00;99639.64;5118007;57;1134960;-73
2022/09/14 06:28:56;;;;;;;9.83;2.80;;;;;;;13.83;100.00;99637.19;4988407;58;1141396;-73
2022/09/14 06:34:02;;;;;;;5.13;2.23;;;;;;;13.90;100.00;99644.84;5050803;57;1139587;-73
2022/09/14 06:39:09;;;;;;;7.47;2.20;;;;;;;14.05;100.00;99635.23;5138888;57;1139275;-73
2022/09/14 06:44:15;;;;;;;4.77;1.93;;;;;;;14.15;100.00;99625.80;5134085;57;1139535;-73
2022/09/14 06:49:22;;;;;;;5.37;1.50;;;;;;;14.17;100.00;99642.44;5110957;57;1139007;-73
2022/09/14 06:54:28;;;;;;;3.03;1.97;;;;;;;14.19;100.00;99643.11;4993087;58;1138966;-73
2022/09/14 06:59:33;;;;;;;10.70;2.33;;;;;;;14.28;100.00;99647.93;5094950;57;1139052;-73
2022/09/14 07:04:39;;;;;;;11.87;4.23;;;;;;;14.42;100.00;99646.81;5089741;57;1141417;-74
2022/09/14 07:09:45;;;;;;;6.70;1.77;;;;;;;14.50;100.00;99650.50;5120850;56;1141600;-73
2022/09/14 07:14:51;;;;;;;8.88;1.92;;;;;;;14.68;100.00;99647.98;5123120;56;1139027;-74
2022/09/14 07:19:56;;;;;;;11.17;3.10;;;;;;;14.89;100.00;99654.14;5185669;57;1139329;-73
2022/09/14 07:25:02;;;;;;;5.63;1.70;;;;;;;15.05;100.00;99647.97;5213135;56;1141372;-74
2022/09/14 07:30:09;;;;;;;10.93;3.93;;;;;;;15.22;100.00;99637.62;5218812;56;1138524;-73
2022/09/14 07:35:15;;;;;;;11.47;1.57;;;;;;;15.40;100.00;99630.75;5178951;55;1141499;-76
2022/09/14 07:40:27;;;;;;;6.57;1.47;;;;;;;15.54;100.00;99637.19;5297938;55;1141356;-76
2022/09/14 07:45:28;;;;;;;11.67;2.03;;;;;;;15.63;100.00;99647.67;5281858;55;1139467;-76
2022/09/14 07:50:34;;;;;;;8.27;2.50;;;;;;;15.78;100.00;99643.27;5213988;56;1141366;-76
2022/09/14 07:55:40;;;;;;;7.67;2.80;;;;;;;15.97;100.00;99647.86;5224651;56;1139239;-75
2022/09/14 08:00:46;;;;;;;9.77;1.70;;;;;;;16.06;100.00;99654.30;5231809;56;1138996;-76
2022/09/14 08:06:00;;;;;;;5.97;2.07;;;;;;;16.19;100.00;99652.41;5132992;57;1138998;-76
2022/09/14 08:11:16;;;;;;;6.00;1.50;;;;;;;16.34;100.00;99651.15;5231905;56;1138988;-77
2022/09/14 08:16:23;;;;;;;7.43;1.80;;;;;;;16.46;100.00;99654.56;5228298;55;1139350;-76
2022/09/14 08:21:31;;;;;;;5.17;1.50;;;;;;;16.36;100.00;99658.45;5208430;55;1139348;-76
2022/09/14 08:26:36;;;;;;;5.43;1.17;;;;;;;16.33;100.00;99662.33;5206862;55;1139012;-75
2022/09/14 08:31:44;;;;;;;6.70;1.63;;;;;;;16.39;100.00;99663.44;5206987;56;1139062;-75
2022/09/14 08:36:48;;;;;;;10.40;1.47;;;;;;;16.48;100.00;99659.22;5207373;56;1139388;-75
2022/09/14 08:41:58;;;;;;;7.07;1.30;;;;;;;16.41;100.00;99658.25;5209725;56;1141505;-75
2022/09/14 08:47:19;;;;;;;4.57;1.47;;;;;;;16.75;100.00;99650.36;5270829;55;1137378;-75
2022/09/14 08:52:33;;;;;;;8.27;1.50;;;;;;;16.68;100.00;99647.56;5229186;55;1137213;-75
2022/09/14 08:57:59;;;;;;;3.10;0.90;;;;;;;16.65;100.00;99645.78;5208551;56;1137180;-75
2022/09/14 09:03:48;;;;;;;6.20;1.47;;;;;;;16.64;100.00;99636.11;5186466;56;1137088;-75
2022/09/14 09:09:09;;;;;;;7.33;1.20;;;;;;;16.96;100.00;99638.47;5184747;57;1139133;-75
2022/09/14 09:14:28;;;;;;;5.10;1.30;;;;;;;17.24;100.00;99633.37;5172403;56;1139351;-74
2022/09/14 09:19:43;;;;;;;8.10;1.87;;;;;;;17.30;95.89;99643.81;5214312;56;1139376;-74
2022/09/14 09:24:53;;;;;;;7.00;1.20;;;;;;;17.36;97.15;99638.58;5171035;56;1137125;-75
2022/09/14 09:29:58;;;;;;;3.67;0.80;;;;;;;17.43;92.13;99642.66;5218535;56;1136952;-76
2022/09/14 09:35:06;;;;;;;7.00;1.77;;;;;;;17.49;89.82;99644.61;5213944;56;1137147;-75
2022/09/14 09:40:19;;;;;;;9.60;2.03;;;;;;;17.48;89.46;99642.44;5120224;56;1136949;-75
2022/09/14 09:45:25;;;;;;;5.77;1.40;;;;;;;17.65;93.57;99637.77;5226379;56;1136834;-75
2022/09/14 09:50:31;;;;;;;4.72;1.57;;;;;;;17.86;88.63;99639.17;5011709;59;1137290;-75
2022/09/14 09:55:40;;;;;;;6.53;1.30;;;;;;;17.93;88.10;99620.00;5110573;58;1137216;-75
2022/09/14 10:00:53;;;;;;;5.78;1.52;;;;;;;17.95;82.82;99624.34;5055963;58;1137251;-75
2022/09/14 10:06:13;;;;;;;4.53;1.67;;;;;;;17.78;83.88;99637.09;5194591;57;1136932;-76
2022/09/14 10:11:36;;;;;;;8.38;1.80;;;;;;;17.87;84.99;99635.45;5160669;57;1136901;-76
2022/09/14 10:16:43;;;;;;;6.62;1.20;;;;;;;18.04;83.61;99621.86;4974049;59;1137225;-75
2022/09/14 10:22:28;;;;;;;6.06;1.28;;;;;;;18.29;83.97;99613.81;4964697;59;1137385;-75
2022/09/14 10:27:51;;;;;;;8.43;1.77;;;;;;;18.48;84.72;99616.37;5114438;58;1135050;-74
2022/09/14 10:33:07;;;;;;;17.73;2.25;;;;;;;18.71;81.38;99608.14;5114336;58;1135068;-75
2022/09/14 10:38:44;;;;;;;6.42;1.65;;;;;;;19.05;81.40;99607.38;5080883;58;1137018;-76
2022/09/14 10:44:07;;;;;;;6.72;1.57;;;;;;;19.26;77.68;99602.75;5104841;58;1132993;-75
2022/09/14 10:49:38;;;;;;;5.97;1.33;;;;;;;19.26;78.85;99597.91;4995031;58;1137003;-75
2022/09/14 10:55:09;;;;;;;3.42;1.45;;;;;;;19.19;79.30;99599.22;5201151;56;1136891;-75
2022/09/14 11:00:20;;;;;;;3.05;1.32;;;;;;;19.15;76.80;99599.29;5209347;56;1137233;-75
2022/09/14 11:05:36;;;;;;;5.80;1.30;;;;;;;19.15;79.37;99599.80;5211526;56;1137187;-75
2022/09/14 11:10:49;;;;;;;7.80;1.20;;;;;;;19.38;78.35;99590.98;5211156;56;1137102;-76
2022/09/14 11:16:17;;;;;;;8.15;1.95;;;;;;;19.49;76.80;99586.91;5170310;56;1136972;-76
2022/09/14 11:21:48;;;;;;;6.53;1.60;;;;;;;19.51;77.09;99589.73;5186626;56;1137246;-75
2022/09/14 11:27:14;;;;;;;7.25;2.00;;;;;;;19.53;73.90;99588.20;5195678;56;1136927;-76
2022/09/14 11:32:31;;;;;;;6.75;1.30;;;;;;;19.50;74.93;99577.35;5197805;55;1136980;-75
2022/09/14 11:37:41;;;;;;;10.72;4.20;;;;;;;19.57;73.06;99576.85;5198598;56;1135062;-75
2022/09/14 11:42:57;;;;;;;32.23;11.68;;;;;;;19.44;73.20;99579.44;5211863;56;1136940;-76
2022/09/14 11:48:34;;;;;;;14.07;4.90;;;;;;;19.29;74.07;99567.51;5166899;56;1139225;-75
2022/09/14 11:53:43;;;;;;;5.10;1.67;;;;;;;19.19;75.29;99560.35;5211385;56;1137057;-76
2022/09/14 11:58:50;;;;;;;7.87;3.20;;;;;;;19.27;75.91;99557.50;5201543;56;1134878;-75
2022/09/14 12:04:18;;;;;;;15.53;6.95;;;;;;;19.40;76.62;99562.63;5201519;56;1134898;-76
2022/09/14 12:09:30;;;;;;;22.50;9.83;;;;;;;19.51;74.02;99555.38;5201359;56;1138966;-76
2022/09/14 12:14:39;;;;;;;5.23;2.20;;;;;;;19.49;74.89;99561.42;5196245;56;1139013;-76
2022/09/14 12:19:49;;;;;;;10.00;3.33;;;;;;;19.45;76.28;99570.38;5194651;56;1137306;-76
2022/09/14 12:25:21;;;;;;;59.90;22.00;;;;;;;19.35;74.75;99562.39;5158737;56;1139026;-76
2022/09/14 12:30:43;;;;;;;4.07;1.77;;;;;;;19.36;75.58;99555.49;5174475;56;1141275;-76
2022/09/14 12:35:50;;;;;;;11.45;1.87;;;;;;;19.44;76.30;99558.50;5188389;56;1136977;-75
2022/09/14 12:41:21;;;;;;;3.02;1.67;;;;;;;19.55;74.49;99572.73;5122243;57;1139073;-75
2022/09/14 12:46:38;;;;;;;4.35;1.62;;;;;;;19.52;74.05;99556.53;5181863;56;1136942;-75
2022/09/14 12:51:47;;;;;;;13.43;3.77;;;;;;;19.70;74.99;99550.61;5230565;55;1137141;-76
2022/09/14 12:57:24;;;;;;;10.98;5.50;;;;;;;19.96;75.88;99564.61;5231447;56;1139158;-76
2022/09/14 13:02:56;;;;;;;12.20;4.85;;;;;;;20.05;74.18;99543.77;5225840;56;1139105;-76
2022/09/14 13:08:04;;;;;;;12.65;3.80;;;;;;;19.83;73.16;99545.28;5192060;56;1136958;-76
2022/09/14 13:13:24;;;;;;;11.15;4.60;;;;;;;19.73;73.67;99539.45;5180989;56;1137098;-76
2022/09/14 13:18:34;;;;;;;21.27;8.33;;;;;;;19.61;74.48;99528.48;5156163;55;1136967;-76
2022/09/14 13:23:42;;;;;;;5.45;1.95;;;;;;;19.62;73.38;99536.84;5154893;55;1136900;-76
2022/09/14 13:28:51;;;;;;;8.63;2.80;;;;;;;19.48;71.61;99532.44;5229958;55;1134847;-76
2022/09/14 13:33:57;;;;;;;10.05;3.00;;;;;;;19.35;71.86;99526.20;5242561;55;1134936;-76
2022/09/14 13:39:05;;;;;;;9.43;3.10;;;;;;;19.21;72.77;99527.98;5242544;55;1137027;-76
2022/09/14 13:44:12;;;;;;;6.75;2.42;;;;;;;19.20;72.57;99527.67;5217697;55;1135248;-76
2022/09/14 13:49:18;;;;;;;6.60;1.82;;;;;;;19.22;73.36;99513.56;5136851;56;1134877;-76
2022/09/14 13:54:30;;;;;;;7.50;2.17;;;;;;;19.32;73.51;99507.30;5236253;55;1134897;-76
2022/09/14 13:59:36;;;;;;;5.95;1.62;;;;;;;19.29;72.55;99502.34;5215998;55;1133050;-76
2022/09/14 14:04:45;;;;;;;6.60;1.90;;;;;;;19.16;72.61;99513.83;5240293;55;1136987;-77
2022/09/14 14:09:55;;;;;;;5.43;1.70;;;;;;;19.10;74.10;99505.23;5172408;55;1136946;-76
2022/09/14 14:15:07;;;;;;;8.87;3.60;;;;;;;19.01;72.82;99499.73;5241828;55;1137277;-76
2022/09/14 14:20:32;;;;;;;6.60;4.03;;;;;;;18.89;73.57;99504.00;5237877;55;1137251;-76
2022/09/14 14:25:54;;;;;;;7.50;2.58;;;;;;;18.79;74.43;99485.58;5285640;55;1137213;-76
2022/09/14 14:31:07;;;;;;;8.10;3.15;;;;;;;18.80;75.68;99484.56;5232607;56;1136910;-76
2022/09/14 14:36:13;;;;;;;8.23;2.60;;;;;;;18.87;76.55;99477.41;5257036;55;1137001;-76
2022/09/14 14:41:21;;;;;;;6.04;1.66;;;;;;;18.88;76.05;99468.85;5322638;55;1136939;-75
2022/09/14 14:46:28;;;;;;;4.87;2.02;;;;;;;18.80;75.40;99464.47;5273315;55;1137203;-76
2022/09/14 14:51:33;;;;;;;4.95;2.15;;;;;;;18.77;75.63;99476.11;5271288;55;1136947;-76
2022/09/14 14:56:39;;;;;;;11.60;4.47;;;;;;;18.76;76.56;99461.89;5300586;55;1137152;-76
2022/09/14 15:01:45;;;;;;;3.45;1.82;;;;;;;18.77;76.60;99472.92;5206823;56;1138961;-75
2022/09/14 15:06:51;;;;;;;8.93;2.17;;;;;;;18.77;76.81;99468.91;5152154;57;1136936;-76
2022/09/14 15:11:57;;;;;;;7.25;2.30;;;;;;;18.73;77.07;99460.94;5152247;57;1136878;-76
2022/09/14 15:17:03;;;;;;;9.28;2.42;;;;;;;18.66;77.73;99461.40;5152010;57;1137224;-76
2022/09/14 15:22:13;;;;;;;5.40;2.30;;;;;;;18.57;77.13;99459.88;5147016;57;1136892;-75
2022/09/14 15:27:18;;;;;;;6.22;1.50;;;;;;;18.45;77.12;99454.25;5125826;57;1137353;-75
2022/09/14 15:32:24;;;;;;;13.45;2.35;;;;;;;18.41;78.17;99448.13;5132297;56;1136748;-76
2022/09/14 15:37:30;;;;;;;11.63;2.22;;;;;;;18.35;78.76;99457.76;5126846;57;1139038;-75
2022/09/14 15:42:36;;;;;;;10.30;2.17;;;;;;;18.28;78.47;99460.41;5121924;57;1139027;-75
2022/09/14 15:47:43;;;;;;;6.35;1.85;;;;;;;18.21;79.06;99449.31;5193402;56;1139099;-75
2022/09/14 15:52:48;;;;;;;4.67;1.70;;;;;;;18.16;78.86;99442.41;5207647;56;1137148;-75
2022/09/14 15:57:53;;;;;;;8.18;1.72;;;;;;;18.13;79.20;99450.30;5188047;56;1137485;-75
2022/09/14 16:02:59;;;;;;;6.70;1.42;;;;;;;18.07;78.93;99455.08;5207165;56;1137109;-76
2022/09/14 16:08:05;;;;;;;5.25;1.67;;;;;;;18.04;79.02;99451.95;5195364;56;1136960;-76
2022/09/14 16:13:11;;;;;;;37.42;17.40;;;;;;;17.97;79.12;99456.44;5178489;56;1136857;-75
2022/09/14 16:18:17;;;;;;;13.15;5.30;;;;;;;17.93;79.74;99458.15;5107397;57;1141417;-75
2022/09/14 16:23:25;;;;;;;15.10;6.45;;;;;;;17.87;79.93;99451.42;5153584;56;1139241;-75
2022/09/14 16:28:33;;;;;;;11.12;4.47;;;;;;;17.83;80.68;99451.48;5239308;56;1137219;-75
2022/09/14 16:33:50;;;;;;;5.10;2.25;;;;;;;17.75;80.78;99454.27;5241692;56;1136790;-76
2022/09/14 16:39:02;;;;;;;11.43;2.30;;;;;;;17.66;81.12;99441.54;5241762;56;1134748;-75
2022/09/14 16:44:10;;;;;;;2.83;2.00;;;;;;;17.59;81.57;99441.42;5215056;56;1137158;-76
2022/09/14 16:49:16;;;;;;;9.63;2.00;;;;;;;17.55;81.88;99440.69;5168530;56;1134781;-76
2022/09/14 16:54:24;;;;;;;7.10;2.33;;;;;;;17.52;82.09;99445.06;5158945;55;1134889;-76
2022/09/14 16:59:30;;;;;;;16.95;2.20;;;;;;;17.47;82.26;99449.63;5154986;56;1134721;-75
2022/09/14 17:04:36;;;;;;;7.33;2.30;;;;;;;17.42;82.60;99453.88;5166523;56;1137228;-75
2022/09/14 17:09:42;;;;;;;9.00;5.77;;;;;;;17.43;82.90;99458.22;5216211;56;1134747;-75
2022/09/14 17:14:48;;;;;;;6.80;2.37;;;;;;;17.43;83.09;99451.53;5152532;56;1135007;-75
2022/09/14 17:19:54;;;;;;;8.40;2.03;;;;;;;17.40;83.25;99454.09;5155121;57;1134889;-75
2022/09/14 17:25:00;;;;;;;7.03;2.80;;;;;;;17.33;83.47;99457.19;5179841;56;1134503;-75
2022/09/14 17:30:07;;;;;;;23.75;6.87;;;;;;;17.28;83.84;99464.94;5077105;57;1135200;-74
2022/09/14 17:35:13;;;;;;;16.15;5.40;;;;;;;17.19;84.22;99462.89;5162027;56;1134753;-76
2022/09/14 17:40:18;;;;;;;12.53;3.67;;;;;;;17.18;84.55;99468.42;5210506;56;1134892;-76
2022/09/14 17:45:24;;;;;;;11.43;3.47;;;;;;;17.13;84.83;99462.80;5282610;55;21162;-75
2022/09/14 17:50:30;;;;;;;7.33;3.27;;;;;;;17.07;84.93;99459.05;5194988;55;1134920;-76
2022/09/14 17:55:36;;;;;;;12.27;2.47;;;;;;;16.99;85.16;99467.15;5155237;57;1136936;-76
2022/09/14 18:00:42;;;;;;;4.75;2.22;;;;;;;16.90;85.27;99460.77;5155249;57;1139033;-75
2022/09/14 18:05:53;;;;;;;11.27;2.70;;;;;;;16.85;85.36;99463.48;5155531;57;1136899;-75
2022/09/14 18:11:12;;;;;;;9.03;2.93;;;;;;;16.79;85.58;99458.89;5155071;57;1139036;-75
2022/09/14 18:16:20;;;;;;;7.43;2.37;;;;;;;16.76;85.88;99459.26;5174487;56;1136977;-76
2022/09/14 18:21:26;;;;;;;8.63;3.03;;;;;;;16.70;86.07;99458.64;5225810;56;1137064;-75
2022/09/14 18:26:32;;;;;;;9.40;3.67;;;;;;;16.67;86.23;99451.00;5056739;57;1136972;-75
2022/09/14 18:31:38;;;;;;;7.97;2.50;;;;;;;16.66;86.36;99445.33;5155094;56;1136946;-75
2022/09/14 18:36:44;;;;;;;9.47;2.60;;;;;;;16.69;86.48;99436.13;5156758;56;1137012;-76
2022/09/14 18:41:55;;;;;;;13.37;4.37;;;;;;;16.77;86.85;99443.56;5222110;55;1136879;-73
2022/09/14 18:47:01;;;;;;;10.80;5.08;;;;;;;16.88;87.59;99430.23;5227455;56;1139266;-73
2022/09/14 18:52:07;;;;;;;17.97;6.30;;;;;;;17.00;88.00;99426.58;5241382;56;1139034;-73
2022/09/14 18:57:16;;;;;;;25.37;8.83;;;;;;;17.00;87.87;99432.74;5238366;56;1139076;-73
2022/09/14 19:02:20;;;;;;;93.92;34.75;;;;;;;16.97;88.36;99424.27;5168451;56;1138965;-73
2022/09/14 19:07:26;;;;;;;55.00;18.83;;;;;;;16.87;88.24;99421.39;5133609;57;1141079;-73
2022/09/14 19:12:32;;;;;;;38.90;11.30;;;;;;;16.82;88.40;99424.29;5239927;56;1141150;-73
2022/09/14 19:17:39;;;;;;;19.47;6.00;;;;;;;16.74;88.62;99429.74;5241096;56;1141135;-73
2022/09/14 19:22:45;;;;;;;21.10;7.13;;;;;;;16.65;89.17;99428.98;5204368;56;1139286;-73
2022/09/14 19:27:51;;;;;;;23.00;9.40;;;;;;;16.74;90.38;99405.71;5196440;56;1139302;-73
2022/09/14 19:32:58;;;;;;;20.03;8.67;;;;;;;16.83;90.67;99409.92;5145251;56;1139063;-75
2022/09/14 19:38:04;;;;;;;17.20;7.67;;;;;;;16.91;90.66;99405.83;5175805;56;1139070;-74
2022/09/14 19:43:09;;;;;;;15.50;7.07;;;;;;;16.91;90.15;99406.34;5204530;56;1139013;-75
2022/09/14 19:48:15;;;;;;;13.03;5.87;;;;;;;16.95;90.46;99406.30;5197872;56;1139209;-74
2022/09/14 19:53:21;;;;;;;11.03;6.53;;;;;;;17.01;90.76;99410.36;5176855;56;1139204;-75
2022/09/14 19:58:28;;;;;;;14.47;3.70;;;;;;;17.02;90.57;99404.00;5154803;56;1138985;-74
2022/09/14 20:03:40;;;;;;;10.23;5.00;;;;;;;17.00;90.76;99403.36;5137946;56;1139304;-73
2022/09/14 20:08:42;;;;;;;28.70;9.17;;;;;;;16.92;90.59;99399.48;5153390;56;1139267;-73
2022/09/14 20:13:48;;;;;;;13.83;4.07;;;;;;;16.92;90.75;99410.16;5120017;57;1139067;-73
2022/09/14 20:18:55;;;;;;;11.60;5.00;;;;;;;16.86;90.25;99416.23;5172074;56;1139055;-74
2022/09/14 20:24:02;;;;;;;12.80;3.63;;;;;;;16.72;90.22;99411.23;5152513;56;1139280;-73
2022/09/14 20:29:09;;;;;;;13.00;5.23;;;;;;;16.59;91.01;99395.52;5126451;56;1139055;-73
2022/09/14 20:34:17;;;;;;;18.47;7.53;;;;;;;16.61;91.75;99408.18;5090667;57;1139286;-73
2022/09/14 20:39:23;;;;;;;21.90;10.70;;;;;;;16.63;91.92;99398.18;5068344;56;1137173;-73
2022/09/14 20:44:29;;;;;;;17.60;5.90;;;;;;;16.65;91.98;99397.48;5151139;56;1139517;-74
2022/09/14 20:49:35;;;;;;;14.57;5.40;;;;;;;16.64;91.63;99391.32;5146781;56;1136984;-74
2022/09/14 20:54:41;;;;;;;18.37;8.83;;;;;;;16.64;91.92;99386.48;5152797;56;1137152;-73
2022/09/14 20:59:47;;;;;;;19.10;7.50;;;;;;;16.58;91.73;99391.19;5173400;56;1136903;-74
2022/09/14 21:04:53;;;;;;;12.47;4.37;;;;;;;16.50;91.75;99398.27;5179718;56;1136947;-74
2022/09/14 21:09:58;;;;;;;17.23;6.73;;;;;;;16.35;91.83;99391.27;5154849;56;1136946;-74
2022/09/14 21:15:04;;;;;;;8.63;3.80;;;;;;;16.34;92.60;99395.80;5163686;56;1136951;-73
2022/09/14 21:20:10;;;;;;;10.97;3.70;;;;;;;16.34;92.67;99398.47;5121571;57;1135028;-73
2022/09/14 21:25:16;;;;;;;8.57;4.03;;;;;;;16.32;92.59;99390.32;5118484;57;1137100;-74
2022/09/14 21:30:23;;;;;;;5.37;3.93;;;;;;;16.20;92.58;99389.92;5204668;56;1135120;-73
2022/09/14 21:35:29;;;;;;;12.00;4.10;;;;;;;16.08;93.04;99384.72;5170614;56;1134946;-74
2022/09/14 21:40:36;;;;;;;11.13;4.07;;;;;;;15.97;93.24;99377.17;5146204;57;1137193;-73
2022/09/14 21:45:47;;;;;;;7.17;3.53;;;;;;;15.97;93.90;99375.33;5014744;58;1136975;-73
2022/09/14 21:51:04;;;;;;;6.70;3.87;;;;;;;15.89;93.25;99382.59;5241568;56;1134842;-73
2022/09/14 21:56:10;;;;;;;7.23;3.93;;;;;;;15.76;93.59;99381.34;5204102;56;1132871;-73
2022/09/14 22:01:16;;;;;;;8.27;4.07;;;;;;;15.71;94.32;99380.24;5210566;56;1132815;-73
2022/09/14 22:06:26;;;;;;;13.90;4.50;;;;;;;15.76;95.47;99368.02;5210594;56;1136852;-74
2022/09/14 22:11:35;;;;;;;9.90;4.90;;;;;;;15.79;95.06;99374.32;5210115;56;1138893;-73
2022/09/14 22:16:42;;;;;;;16.53;4.57;;;;;;;15.83;95.39;99364.97;5210390;56;1137038;-74
2022/09/14 22:21:49;;;;;;;11.60;5.17;;;;;;;15.94;95.53;99367.69;5210443;56;1138982;-73
2022/09/14 22:26:56;;;;;;;11.60;4.77;;;;;;;15.88;94.84;99363.60;5213567;56;1139260;-74
2022/09/14 22:32:03;;;;;;;13.67;5.57;;;;;;;15.93;95.70;99358.02;5210385;56;1139037;-73
2022/09/14 22:37:09;;;;;;;6.77;3.50;;;;;;;15.91;95.55;99341.88;5141388;57;1139053;-73
2022/09/14 22:42:15;;;;;;;12.93;4.77;;;;;;;15.91;95.40;99348.05;5121570;57;1136958;-74
2022/09/14 22:47:21;;;;;;;9.37;4.00;;;;;;;15.92;95.39;99346.20;5089001;57;1139034;-73
2022/09/14 22:52:26;;;;;;;7.30;3.83;;;;;;;16.00;95.61;99355.47;5167340;57;1136947;-73
2022/09/14 22:57:33;;;;;;;13.27;4.20;;;;;;;15.88;94.48;99360.94;5205586;56;1136961;-74
2022/09/14 23:02:39;;;;;;;11.47;4.40;;;;;;;15.64;94.61;99352.13;5203245;56;1139159;-73
2022/09/14 23:07:45;;;;;;;11.85;4.05;;;;;;;15.64;95.75;99350.80;5165472;56;1139059;-73
2022/09/14 23:12:52;;;;;;;9.70;4.23;;;;;;;15.61;95.77;99347.16;5207474;56;1139094;-74
2022/09/14 23:17:58;;;;;;;11.70;4.10;;;;;;;15.66;96.20;99354.11;5207412;56;1137001;-74
2022/09/14 23:23:04;;;;;;;12.37;4.47;;;;;;;15.68;96.17;99344.61;5207739;56;1139040;-73
2022/09/14 23:28:12;;;;;;;6.50;3.53;;;;;;;15.68;96.08;99348.61;5172042;56;1139262;-73
2022/09/14 23:33:17;;;;;;;14.03;4.67;;;;;;;15.67;95.84;99327.79;5241011;56;1136930;-73